This is the latest recevied weather packets stored in our database for station/object K2CCS. If no packets are shown the sender has not sent any weather packets the latest 1 day(s).
| Time | Temp. | Humidity | Pressure | Rain* | Wind** | Luminosity | Snow |
|---|---|---|---|---|---|---|---|
| 1836274583 | 11.67° C | 84% | 1026.7 hPa | 0 mm | 0 m/s | 0 W/m² | - |
| 1836274436 | 11.67° C | 85% | 1026.7 hPa | 0 mm | 0 m/s | 0 W/m² | - |
| 1836274281 | 11.67° C | 83% | 1026.9 hPa | 0 mm | 0 m/s | 0 W/m² | - |
| 1836274134 | 11.67° C | 84% | 1026.7 hPa | 0 mm | 0 m/s | 0 W/m² | - |
| 1836273980 | 11.67° C | 83% | 1026.9 hPa | 0 mm | 0 m/s | 0 W/m² | - |
| 1778047537 | 15° C | 89% | 1012.8 hPa | 0 mm | 0 m/s | 0 W/m² | - |
| 1778047234 | 15° C | 88% | 1012.6 hPa | 0 mm | 0 m/s | 0 W/m² | - |
| 1778046931 | 15° C | 88% | 1012.8 hPa | 0 mm | 0 m/s | 0 W/m² | - |
| 1778046628 | 15° C | 87% | 1012.7 hPa | 0 mm | 0 m/s | 0 W/m² | - |
| 1778046325 | 15.56° C | 86% | 1012.8 hPa | 0 mm | 0 m/s | 0 W/m² | - |
| 1778046020 | 15.56° C | 86% | 1012.8 hPa | 0 mm | 0 m/s | 0 W/m² | - |
| 1778045719 | 15.56° C | 85% | 1012.7 hPa | 0 mm | 0 m/s | 0 W/m² | - |
| 1778045417 | 15.56° C | 84% | 1012.5 hPa | 0 mm | 0 m/s | 0 W/m² | - |
| 1778045115 | 15.56° C | 84% | 1012.9 hPa | 0 mm | 0 m/s | 0 W/m² | - |
| 1778044812 | 15.56° C | 83% | 1012.6 hPa | 0 mm | 0.45 m/s, 185° | 0 W/m² | - |
| 1778044509 | 15.56° C | 82% | 1012.4 hPa | 0 mm | 0 m/s | 0 W/m² | - |
| 1778044206 | 15.56° C | 81% | 1012.6 hPa | 0 mm | 0 m/s | 0 W/m² | - |
| 1778043904 | 16.11° C | 80% | 1012.5 hPa | 0 mm | 0 m/s | 0 W/m² | - |
| 1778043601 | 16.67° C | 79% | 1012.7 hPa | 0 mm | 0 m/s | 0 W/m² | - |
| 1778043297 | 16.67° C | 78% | 1012.5 hPa | 0 mm | 0 m/s | 0 W/m² | - |
| 1778042994 | 17.22° C | 76% | 1012.7 hPa | 0 mm | 0 m/s | 0 W/m² | - |
| 1778042692 | 17.22° C | 75% | 1013.2 hPa | 0 mm | 0.89 m/s, 298° | 0 W/m² | - |
| 1778042388 | 17.22° C | 76% | 1013.1 hPa | 0 mm | 0.89 m/s, 245° | 0 W/m² | - |
| 1778042086 | 17.22° C | 77% | 1013.2 hPa | 0 mm | 0 m/s | 0 W/m² | - |
| 1778041784 | 17.22° C | 77% | 1013.1 hPa | 0 mm | 1.34 m/s, 218° | 0 W/m² | - |
* Rain latest hour (hover to see other rain measurements)
** Current wind speed in m/s (hover to see current wind gust speed)